createdAt,value
2018-12-23T00:01:50.056Z,2.66
2018-12-23T00:16:52.629Z,2.92
2018-12-23T00:31:56.241Z,2.96
2018-12-23T00:46:59.934Z,2.69
2018-12-23T01:02:04.208Z,2.26
2018-12-23T01:17:07.046Z,2.13
2018-12-23T01:32:10.265Z,2.12
2018-12-23T01:47:12.982Z,1.97
2018-12-23T02:02:15.556Z,2.18
2018-12-23T02:17:18.400Z,2.35
2018-12-23T02:32:21.222Z,2.36
2018-12-23T02:47:25.168Z,2.30
2018-12-23T03:02:29.563Z,4.82
2018-12-23T03:17:33.144Z,5.73
2018-12-23T03:32:38.183Z,6.33
2018-12-23T03:47:41.028Z,6.66
2018-12-23T04:02:44.320Z,6.40
2018-12-23T04:17:47.681Z,6.72
2018-12-23T04:32:53.635Z,6.14
2018-12-23T04:47:57.539Z,6.54
2018-12-23T05:03:00.495Z,7.10
2018-12-23T05:18:03.056Z,6.99
2018-12-23T05:33:05.613Z,7.14
2018-12-23T05:48:08.471Z,7.10
2018-12-23T06:03:11.068Z,6.66
2018-12-23T06:18:15.116Z,6.74
2018-12-23T06:33:20.677Z,5.96
2018-12-23T06:48:23.232Z,6.54
2018-12-23T07:03:25.776Z,8.35
2018-12-23T07:18:31.746Z,7.65
2018-12-23T07:33:34.292Z,7.96
2018-12-23T07:48:36.838Z,7.88
2018-12-23T08:03:39.393Z,9.10
2018-12-23T08:18:42.777Z,12.22
2018-12-23T08:33:45.630Z,15.11
2018-12-23T08:48:49.122Z,14.36
2018-12-23T09:03:51.673Z,15.41
2018-12-23T09:18:54.547Z,20.95
2018-12-23T09:33:58.028Z,12.67
2018-12-23T09:49:02.217Z,10.80
2018-12-23T10:04:05.498Z,13.11
2018-12-23T10:19:08.059Z,19.04
2018-12-23T10:34:10.935Z,14.67
2018-12-23T10:49:13.506Z,16.33
2018-12-23T11:04:16.451Z,15.95
2018-12-23T11:19:20.532Z,12.19
2018-12-23T11:34:23.498Z,9.47
2018-12-23T11:49:26.287Z,8.53
2018-12-23T12:04:30.498Z,8.62
2018-12-23T12:19:34.101Z,8.47
2018-12-23T12:34:36.653Z,8.20
2018-12-23T12:49:39.813Z,8.04
2018-12-23T13:04:43.286Z,7.66
2018-12-23T13:19:46.141Z,7.22
2018-12-23T13:34:49.007Z,7.22
2018-12-23T14:21:08.204Z,7.06
2018-12-23T14:36:11.043Z,6.76
2018-12-23T14:51:14.395Z,6.76
2018-12-23T15:06:17.281Z,6.89
2018-12-23T15:21:20.170Z,7.09
2018-12-23T15:36:24.449Z,6.90
2018-12-23T15:51:27.072Z,6.76
2018-12-23T16:06:30.693Z,6.61
2018-12-23T16:21:33.594Z,6.45
2018-12-23T16:36:37.297Z,6.10
2018-12-23T16:51:40.131Z,6.01
2018-12-23T17:06:42.746Z,6.07
2018-12-23T17:21:45.923Z,5.88
2018-12-23T17:36:48.752Z,5.88
2018-12-23T17:51:51.915Z,6.11
2018-12-23T18:06:54.503Z,6.18
2018-12-23T18:21:57.300Z,6.18
2018-12-23T18:37:01.026Z,6.03
2018-12-23T18:52:03.811Z,5.48
2018-12-23T19:07:06.389Z,4.84
2018-12-23T19:22:17.434Z,4.31
2018-12-23T19:37:32.021Z,4.07
2018-12-23T19:52:48.615Z,4.23
2018-12-23T20:08:01.723Z,4.48
2018-12-23T20:23:19.589Z,4.14
2018-12-23T20:38:27.238Z,3.63
2018-12-23T21:09:22.714Z,2.69
2018-12-23T21:24:38.153Z,2.59
2018-12-23T21:39:52.501Z,2.70
2018-12-23T22:11:01.814Z,1.92
2018-12-23T22:26:04.378Z,1.36
2018-12-23T22:41:06.940Z,1.52
2018-12-23T22:56:11.398Z,1.96
2018-12-23T23:11:16.187Z,2.39
2018-12-23T23:26:22.110Z,2.50
2018-12-23T23:41:24.669Z,2.65
2018-12-23T23:56:27.629Z,2.85
